Terminal Aerodrome Forecast
Issued by NWS Hastings, NE

Home | Current Version | Previous Version | Text Only | Print | Product List | Glossary On
Versions: 1 2 3 4 5 6 7 8 9 10 11 12 13
000
FTUS43 KGID 202320
TAFGRI
TAF
KGRI 202320Z 2100/2124 05007KT P6SM SCT250
     FM210500 02008KT P6SM BKN015
     FM210700 02009KT 2SM BR OVC008
     FM211000 02010KT 1/2SM -FZDZ FG VV002
     FM211800 03014G22KT 3SM -FZDZ BR OVC003
     FM212100 03015G23KT 1 1/2SM -SN VV003=

USA.gov is the U.S. government's official web portal to all federal, state and local government web resources and services.